Time;durP1;ratioP1;P1;durP2;ratioP2;P2;SDS_P1;SDS_P2;PMS_P1;PMS_P2;Temp;Humidity;BMP_temperature;BMP_pressure;BME280_temperature;BME280_humidity;BME280_pressure;Samples;Min_cycle;Max_cycle;Signal;HPM_P1;HPM_P2
2022/03/25 00:02:12;;;;;;;;;55.00;45.50;;;;;13.97;34.21;102082.16;5051221;28;46148;-58
2022/03/25 00:04:37;;;;;;;;;57.00;43.75;;;;;13.87;34.71;102079.91;5042912;28;45526;-58
2022/03/25 00:07:03;;;;;;;;;58.75;47.50;;;;;13.91;34.37;102091.31;5054194;28;45438;-59
2022/03/25 00:09:28;;;;;;;;;51.75;43.00;;;;;13.76;33.99;102060.81;5035018;28;45411;-58
2022/03/25 00:11:54;;;;;;;;;55.25;44.75;;;;;13.77;34.59;102069.69;5046342;28;45382;-59
2022/03/25 00:14:19;;;;;;;;;54.50;45.75;;;;;13.78;34.64;102076.78;5056446;28;45326;-60
2022/03/25 00:16:45;;;;;;;;;50.75;40.25;;;;;13.81;34.53;102085.56;5028017;28;45358;-58
2022/03/25 00:19:11;;;;;;;;;53.25;41.25;;;;;13.79;34.73;102082.06;5051834;28;45636;-60
2022/03/25 00:21:37;;;;;;;;;60.00;46.50;;;;;13.71;34.64;102083.38;5052022;28;45345;-58
2022/03/25 00:24:04;;;;;;;;;57.75;46.50;;;;;13.60;34.81;102069.59;5054324;28;45519;-58
2022/03/25 00:26:30;;;;;;;;;61.50;49.00;;;;;13.64;34.85;102087.22;5023217;28;45418;-57
2022/03/25 00:28:55;;;;;;;;;56.50;46.50;;;;;13.65;35.08;102084.50;5043319;28;45506;-59
2022/03/25 00:31:21;;;;;;;;;44.50;39.00;;;;;13.64;34.62;102073.88;5036649;28;46879;-59
2022/03/25 00:33:49;;;;;;;;;60.00;47.25;;;;;13.62;35.02;102084.63;5034944;28;45541;-57
2022/03/25 00:36:16;;;;;;;;;56.50;46.00;;;;;13.60;35.23;102078.50;5058499;28;45388;-56
2022/03/25 00:38:41;;;;;;;;;57.50;46.75;;;;;13.58;35.18;102077.69;5048394;28;45269;-58
2022/03/25 00:41:07;;;;;;;;;58.00;48.00;;;;;13.60;35.06;102080.31;5044304;28;45404;-57
2022/03/25 00:43:36;;;;;;;;;57.75;46.75;;;;;13.56;34.96;102069.75;5038211;28;45546;-58
2022/03/25 00:46:01;;;;;;;;;61.25;48.75;;;;;13.58;35.16;102083.03;5059455;28;45431;-58
2022/03/25 00:48:27;;;;;;;;;55.75;43.25;;;;;13.47;35.28;102074.63;5058514;28;45366;-58
2022/03/25 00:50:54;;;;;;;;;53.50;41.75;;;;;13.53;35.56;102080.56;5041582;28;45527;-58
2022/03/25 00:53:19;;;;;;;;;62.25;46.50;;;;;13.52;34.92;102085.97;5047812;28;45496;-59
2022/03/25 00:55:45;;;;;;;;;55.75;45.00;;;;;13.46;35.75;102079.13;5054018;28;45398;-57
2022/03/25 00:58:10;;;;;;;;;56.50;45.50;;;;;13.43;35.42;102084.59;5020056;28;45582;-58
2022/03/25 01:00:36;;;;;;;;;62.50;47.00;;;;;13.40;35.26;102079.38;5043810;28;45408;-57
2022/03/25 01:03:01;;;;;;;;;65.25;52.75;;;;;13.26;35.42;102071.97;5039917;28;45702;-57
2022/03/25 01:05:27;;;;;;;;;60.00;44.25;;;;;13.24;36.09;102072.97;5057545;28;45414;-58
2022/03/25 01:07:52;;;;;;;;;53.50;42.50;;;;;13.24;36.09;102070.28;5049677;28;45404;-57
2022/03/25 01:10:18;;;;;;;;;59.00;44.00;;;;;13.32;35.67;102078.00;5047517;28;46488;-59
2022/03/25 01:12:44;;;;;;;;;61.75;47.75;;;;;13.31;35.70;102077.13;5038710;28;45270;-59
2022/03/25 01:15:10;;;;;;;;;59.25;46.00;;;;;13.24;35.92;102079.19;5021122;28;45242;-58
2022/03/25 01:17:35;;;;;;;;;44.25;39.00;;;;;13.21;36.00;102076.66;5036723;28;45266;-59
2022/03/25 01:20:00;;;;;;;;;61.25;44.25;;;;;13.18;36.21;102066.09;5055573;28;45937;-56
2022/03/25 01:22:26;;;;;;;;;51.25;42.50;;;;;13.21;36.42;102073.09;5053236;28;45489;-58
2022/03/25 01:24:51;;;;;;;;;61.50;47.75;;;;;13.21;36.08;102067.75;5050610;28;45741;-57
2022/03/25 01:27:17;;;;;;;;;53.50;40.50;;;;;13.22;36.82;102066.81;5037604;28;45444;-58
2022/03/25 01:29:43;;;;;;;;;55.50;43.25;;;;;13.27;36.18;102067.47;5036990;28;45419;-59
2022/03/25 01:32:09;;;;;;;;;55.00;44.25;;;;;13.23;36.77;102055.19;5052651;28;45468;-58
2022/03/25 01:34:35;;;;;;;;;62.25;46.50;;;;;13.31;37.00;102058.41;5057651;28;45484;-57
2022/03/25 01:37:01;;;;;;;;;64.25;49.75;;;;;13.28;36.58;102058.53;5041417;28;45595;-60
2022/03/25 01:39:27;;;;;;;;;62.00;44.75;;;;;13.30;36.29;102054.00;5044997;28;45356;-58
2022/03/25 01:41:52;;;;;;;;;62.25;47.00;;;;;13.25;36.79;102047.97;5053187;28;45471;-58
2022/03/25 01:44:27;;;;;;;;;54.00;43.50;;;;;13.29;36.52;102049.59;5041956;28;45450;-58
2022/03/25 01:46:53;;;;;;;;;55.25;44.50;;;;;13.26;36.76;102049.72;5034188;28;45290;-58
2022/03/25 01:49:20;;;;;;;;;56.00;43.75;;;;;13.22;36.40;102045.47;5048914;28;46013;-59
2022/03/25 01:51:53;;;;;;;;;44.75;38.25;;;;;13.15;36.88;102047.50;5049302;28;45255;-57
2022/03/25 01:54:26;;;;;;;;;55.25;46.25;;;;;13.16;36.44;102051.06;5056791;28;45288;-58
2022/03/25 01:56:55;;;;;;;;;58.00;46.75;;;;;13.13;36.72;102046.69;5047743;28;45276;-60
2022/03/25 01:59:22;;;;;;;;;58.00;45.00;;;;;13.10;36.49;102048.63;5054458;28;45387;-58
2022/03/25 02:01:49;;;;;;;;;57.50;43.75;;;;;13.03;36.94;102050.72;5050855;28;45556;-56
2022/03/25 02:04:14;;;;;;;;;54.75;45.25;;;;;12.95;36.86;102043.00;5055307;28;45771;-59
2022/03/25 02:06:39;;;;;;;;;57.00;45.50;;;;;12.95;37.01;102053.69;5045696;28;45732;-56
2022/03/25 02:09:05;;;;;;;;;59.75;45.00;;;;;12.92;37.15;102048.50;5041665;28;46246;-57
2022/03/25 02:11:32;;;;;;;;;66.25;48.50;;;;;12.84;37.21;102044.41;5043325;28;45423;-57
2022/03/25 02:13:58;;;;;;;;;60.50;48.50;;;;;12.82;37.53;102049.81;5056636;28;45256;-58
2022/03/25 02:16:45;;;;;;;;;57.00;45.75;;;;;12.83;37.46;102048.88;5056836;28;45198;-56
2022/03/25 02:19:12;;;;;;;;;56.25;42.25;;;;;12.83;37.51;102045.34;5026321;28;47260;-59
2022/03/25 02:21:40;;;;;;;;;62.00;47.50;;;;;12.81;37.50;102048.06;5053299;28;45450;-62
2022/03/25 02:24:08;;;;;;;;;59.75;45.75;;;;;12.78;37.92;102052.69;5047573;28;45376;-58
2022/03/25 02:26:35;;;;;;;;;60.00;47.50;;;;;12.71;37.77;102033.38;5043459;28;45571;-59
2022/03/25 02:29:01;;;;;;;;;52.75;41.25;;;;;12.74;37.79;102045.72;5054190;28;46725;-59
2022/03/25 02:31:27;;;;;;;;;50.50;42.75;;;;;12.75;37.49;102047.44;5054550;28;45483;-61
2022/03/25 02:33:56;;;;;;;;;51.75;42.00;;;;;12.67;37.97;102046.00;5053649;28;45465;-60
2022/03/25 02:36:22;;;;;;;;;62.75;46.50;;;;;12.66;37.00;102033.56;5054936;28;45346;-61
2022/03/25 02:38:47;;;;;;;;;61.25;47.50;;;;;12.78;38.01;102052.69;5052433;28;45996;-60
2022/03/25 02:41:12;;;;;;;;;62.00;47.50;;;;;12.79;38.65;102047.28;5042360;28;45428;-57
2022/03/25 02:43:38;;;;;;;;;41.75;32.25;;;;;12.77;38.02;102046.47;5038173;28;45912;-57
2022/03/25 02:46:04;;;;;;;;;62.00;45.50;;;;;12.75;38.11;102055.47;5040686;28;45292;-58
2022/03/25 02:48:30;;;;;;;;;53.50;42.00;;;;;12.74;38.22;102046.59;5050323;28;45707;-57
2022/03/25 02:50:56;;;;;;;;;59.00;46.00;;;;;12.77;38.12;102049.16;5047643;28;45349;-58
2022/03/25 02:53:21;;;;;;;;;59.50;45.00;;;;;12.72;38.43;102052.94;5045594;28;45370;-59
2022/03/25 02:55:47;;;;;;;;;63.00;46.00;;;;;12.63;38.10;102046.16;5053418;28;45482;-58
2022/03/25 02:58:13;;;;;;;;;59.50;47.50;;;;;12.64;38.03;102050.59;5036804;28;45516;-58
2022/03/25 03:00:38;;;;;;;;;56.75;43.75;;;;;12.57;37.93;102060.63;5042073;28;45378;-58
2022/03/25 03:03:04;;;;;;;;;54.50;44.75;;;;;12.49;38.17;102059.19;5035762;28;45324;-59
2022/03/25 03:05:31;;;;;;;;;60.50;47.50;;;;;12.47;38.44;102053.06;5018544;28;45443;-58
2022/03/25 03:07:57;;;;;;;;;52.25;43.75;;;;;12.48;38.74;102054.78;5051353;28;46088;-57
2022/03/25 03:10:24;;;;;;;;;66.50;47.00;;;;;12.43;38.98;102046.13;5044827;28;45923;-57
2022/03/25 03:12:50;;;;;;;;;54.75;43.25;;;;;12.44;38.25;102054.06;5042358;28;45379;-59
2022/03/25 03:15:17;;;;;;;;;55.50;45.00;;;;;12.43;38.70;102072.81;5049648;28;45455;-57
2022/03/25 03:17:47;;;;;;;;;57.25;43.75;;;;;12.37;39.25;102058.78;5033580;28;46466;-57
2022/03/25 03:20:14;;;;;;;;;58.00;46.00;;;;;12.35;38.59;102065.97;5055203;28;45758;-57
2022/03/25 03:22:41;;;;;;;;;48.00;38.00;;;;;12.29;39.08;102063.56;5050794;28;45544;-59
2022/03/25 03:25:06;;;;;;;;;61.50;46.50;;;;;12.29;38.92;102060.88;5051754;28;45439;-57
2022/03/25 03:27:32;;;;;;;;;53.50;41.00;;;;;12.31;39.83;102058.16;5047049;28;45436;-58
2022/03/25 03:29:58;;;;;;;;;57.50;46.00;;;;;12.34;39.11;102058.91;5055524;28;45505;-57
2022/03/25 03:32:25;;;;;;;;;55.50;42.00;;;;;12.33;39.18;102049.16;5039969;28;45567;-57
2022/03/25 03:34:53;;;;;;;;;56.50;43.25;;;;;12.36;39.15;102050.81;5030404;28;45347;-58
2022/03/25 03:37:19;;;;;;;;;61.25;48.00;;;;;12.38;39.40;102055.19;5035352;28;46184;-56
2022/03/25 03:39:45;;;;;;;;;64.50;46.00;;;;;12.40;39.44;102048.00;5036610;28;45895;-57
2022/03/25 03:42:10;;;;;;;;;52.00;42.75;;;;;12.45;39.14;102049.59;5046459;28;45308;-58
2022/03/25 03:44:36;;;;;;;;;58.25;44.50;;;;;12.45;39.41;102050.47;5035757;28;45368;-58
2022/03/25 03:47:03;;;;;;;;;60.50;47.50;;;;;12.40;39.37;102037.31;5057772;28;45581;-56
2022/03/25 03:49:29;;;;;;;;;55.75;43.50;;;;;12.45;39.47;102046.94;5057235;28;45696;-58
2022/03/25 03:51:54;;;;;;;;;55.50;41.25;;;;;12.37;39.34;102041.91;5058479;28;45694;-57
2022/03/25 03:54:19;;;;;;;;;61.25;47.75;;;;;12.36;38.96;102051.69;5037225;28;45610;-59
2022/03/25 03:56:45;;;;;;;;;59.75;46.00;;;;;12.27;39.42;102040.53;5056816;28;46160;-57
2022/03/25 03:59:10;;;;;;;;;57.25;47.75;;;;;12.30;39.67;102051.09;5058405;28;47065;-59
2022/03/25 04:01:36;;;;;;;;;61.00;45.50;;;;;12.26;39.43;102047.69;5047793;28;45539;-59
2022/03/25 04:04:01;;;;;;;;;60.00;47.25;;;;;12.14;39.91;102034.81;5043842;28;45558;-60
2022/03/25 04:06:27;;;;;;;;;64.75;48.25;;;;;12.10;39.63;102044.72;5058503;28;45822;-55
2022/03/25 04:08:52;;;;;;;;;57.00;42.75;;;;;12.13;40.17;102049.09;5051170;28;45384;-57
2022/03/25 04:11:18;;;;;;;;;53.00;42.75;;;;;12.15;39.94;102047.22;5040509;28;45510;-57
2022/03/25 04:13:45;;;;;;;;;61.00;46.00;;;;;12.18;40.53;102051.56;5037342;28;45471;-58
2022/03/25 04:16:10;;;;;;;;;48.00;42.25;;;;;12.17;40.31;102055.16;5031411;28;45509;-58
2022/03/25 04:18:36;;;;;;;;;54.75;43.25;;;;;12.11;39.76;102048.28;5056949;28;46023;-56
2022/03/25 04:21:02;;;;;;;;;57.50;43.00;;;;;12.13;40.02;102062.44;5040517;28;45531;-56
2022/03/25 04:23:27;;;;;;;;;57.25;44.00;;;;;12.09;40.79;102064.31;5040041;28;45425;-57
2022/03/25 04:25:53;;;;;;;;;59.50;47.25;;;;;12.12;40.09;102058.03;5040361;28;45451;-57
2022/03/25 04:28:18;;;;;;;;;53.50;45.25;;;;;12.03;40.22;102053.03;5046507;28;45453;-58
2022/03/25 04:30:44;;;;;;;;;62.50;46.50;;;;;11.98;40.48;102061.22;5054664;28;45465;-57
2022/03/25 04:33:09;;;;;;;;;59.50;39.50;;;;;11.94;40.62;102059.59;5054081;28;45628;-58
2022/03/25 04:35:35;;;;;;;;;55.75;42.25;;;;;11.88;40.79;102065.16;5038172;28;46447;-59
2022/03/25 04:38:01;;;;;;;;;56.50;45.75;;;;;11.74;41.18;102057.66;5043689;28;45456;-60
2022/03/25 04:40:28;;;;;;;;;66.50;48.25;;;;;11.74;41.12;102056.78;5030672;28;45459;-57
2022/03/25 04:42:56;;;;;;;;;58.25;46.25;;;;;11.71;41.17;102068.41;5050468;28;45613;-57
2022/03/25 04:45:24;;;;;;;;;55.25;43.75;;;;;11.80;41.07;102073.44;5057513;28;45343;-60
2022/03/25 04:47:50;;;;;;;;;59.00;41.50;;;;;11.79;41.10;102061.03;5052493;28;45506;-58
2022/03/25 04:50:17;;;;;;;;;45.25;40.00;;;;;11.74;41.37;102065.66;5050864;28;45577;-59
2022/03/25 04:52:43;;;;;;;;;58.50;44.00;;;;;11.81;41.11;102075.19;5052125;28;45563;-58
2022/03/25 04:55:11;;;;;;;;;55.00;44.25;;;;;11.80;41.78;102073.44;5056780;28;45476;-59
2022/03/25 04:57:38;;;;;;;;;66.50;46.25;;;;;11.75;41.11;102074.53;5054503;28;45471;-56
2022/03/25 05:00:04;;;;;;;;;57.50;45.75;;;;;11.68;41.35;102068.53;5055821;28;45485;-58
2022/03/25 05:02:30;;;;;;;;;59.50;45.50;;;;;11.70;41.47;102080.00;5044152;28;45625;-59
2022/03/25 05:04:55;;;;;;;;;54.50;45.50;;;;;11.72;41.63;102086.19;5038171;28;45582;-57
2022/03/25 05:07:21;;;;;;;;;60.50;47.00;;;;;11.65;41.13;102068.66;5053314;28;45402;-56
2022/03/25 05:09:47;;;;;;;;;61.25;45.00;;;;;11.74;40.96;102078.13;5053850;28;45383;-58
2022/03/25 05:12:12;;;;;;;;;60.25;49.00;;;;;11.75;41.62;102090.50;5034440;28;45442;-57
2022/03/25 05:14:38;;;;;;;;;56.50;46.50;;;;;11.59;41.88;102082.22;5037009;28;45348;-59
2022/03/25 05:17:05;;;;;;;;;60.00;47.50;;;;;11.63;42.02;102098.97;5021864;28;45397;-58
2022/03/25 05:19:31;;;;;;;;;59.25;45.00;;;;;11.63;41.75;102091.84;5056015;28;45638;-57
2022/03/25 05:21:57;;;;;;;;;57.25;46.00;;;;;11.62;41.94;102090.09;5055931;28;45577;-58
2022/03/25 05:24:22;;;;;;;;;61.75;45.25;;;;;11.59;41.81;102087.56;5040400;28;45418;-58
2022/03/25 05:26:48;;;;;;;;;61.25;44.75;;;;;11.53;42.25;102090.41;5037554;28;45346;-57
2022/03/25 05:29:15;;;;;;;;;58.50;44.25;;;;;11.48;42.15;102092.41;5054840;28;45383;-56
2022/03/25 05:31:41;;;;;;;;;57.00;44.75;;;;;11.45;41.95;102087.16;5055397;28;45426;-57
2022/03/25 05:34:07;;;;;;;;;65.25;49.25;;;;;11.40;42.02;102079.34;5046809;28;46606;-57
2022/03/25 05:36:33;;;;;;;;;63.50;44.50;;;;;11.30;42.45;102071.72;5038464;28;45511;-58
2022/03/25 05:39:00;;;;;;;;;65.00;46.75;;;;;11.27;42.42;102071.84;5048198;28;45637;-57
2022/03/25 05:41:27;;;;;;;;;57.00;44.75;;;;;11.29;42.63;102093.94;5045648;28;45630;-58
2022/03/25 05:43:53;;;;;;;;;56.25;43.25;;;;;11.21;42.48;102079.13;5027122;28;46360;-57
2022/03/25 05:46:19;;;;;;;;;64.50;49.00;;;;;11.23;42.70;102092.38;5056264;28;45296;-60
2022/03/25 05:48:45;;;;;;;;;61.00;42.25;;;;;11.18;42.14;102094.31;5041259;28;45284;-58
2022/03/25 05:51:11;;;;;;;;;60.00;46.75;;;;;11.11;42.66;102092.81;5051951;28;45448;-59
2022/03/25 05:53:37;;;;;;;;;52.75;41.75;;;;;11.03;42.85;102095.72;5047252;28;46014;-59
2022/03/25 05:56:04;;;;;;;;;62.25;46.75;;;;;11.02;42.81;102101.97;5042018;28;45201;-58
2022/03/25 05:58:34;;;;;;;;;61.50;47.75;;;;;10.97;43.77;102108.38;5021472;28;45347;-58
2022/03/25 06:01:01;;;;;;;;;61.50;46.25;;;;;10.90;43.36;102089.06;5036355;28;45460;-57
2022/03/25 06:03:27;;;;;;;;;66.00;47.50;;;;;10.96;43.58;102112.84;5050609;28;45946;-59
2022/03/25 06:05:53;;;;;;;;;57.75;45.75;;;;;10.90;43.25;102099.72;5055252;28;45491;-60
2022/03/25 06:08:18;;;;;;;;;58.75;45.25;;;;;10.92;42.82;102109.38;5054432;28;45392;-56
2022/03/25 06:10:44;;;;;;;;;61.00;44.50;;;;;10.95;43.09;102112.91;5039231;28;45195;-56
2022/03/25 06:13:09;;;;;;;;;55.75;45.75;;;;;10.87;43.50;102115.78;5056782;28;45453;-57
2022/03/25 06:15:35;;;;;;;;;66.50;46.00;;;;;10.86;44.02;102103.41;5055659;28;45365;-58
2022/03/25 06:18:00;;;;;;;;;63.00;48.75;;;;;10.83;43.52;102119.50;5055423;28;45424;-59
2022/03/25 06:20:29;;;;;;;;;42.50;33.75;;;;;10.80;43.91;102108.91;5043854;28;45173;-59
2022/03/25 06:22:55;;;;;;;;;60.75;43.50;;;;;10.94;43.85;102125.34;5035285;28;45343;-61
2022/03/25 06:25:21;;;;;;;;;56.50;46.00;;;;;10.96;43.74;102119.97;5053556;28;45354;-58
2022/03/25 06:27:55;;;;;;;;;62.50;45.75;;;;;11.00;43.64;102118.91;5039832;28;45332;-59
2022/03/25 06:30:23;;;;;;;;;62.00;49.25;;;;;11.07;43.07;102125.78;5024513;28;45479;-57
2022/03/25 06:32:48;;;;;;;;;60.00;49.00;;;;;11.06;42.79;102130.22;5051656;28;45479;-56
2022/03/25 06:35:23;;;;;;;;;60.50;48.25;;;;;11.05;43.10;102136.47;5035365;28;45634;-59
2022/03/25 06:37:51;;;;;;;;;57.00;44.25;;;;;11.03;43.19;102127.66;5052383;28;45419;-58
2022/03/25 06:40:19;;;;;;;;;63.25;48.50;;;;;11.08;42.66;102127.53;5056957;28;45540;-60
2022/03/25 06:42:45;;;;;;;;;61.75;49.50;;;;;11.07;43.78;102134.66;5037312;28;46915;-61
2022/03/25 06:45:13;;;;;;;;;66.00;48.50;;;;;11.12;43.84;102132.69;5054310;28;45161;-59
2022/03/25 06:47:42;;;;;;;;;59.75;46.25;;;;;11.19;43.19;102139.53;5044787;28;45628;-58
2022/03/25 06:50:10;;;;;;;;;61.00;47.50;;;;;11.18;42.86;102136.94;5056782;28;45296;-56
2022/03/25 06:52:36;;;;;;;;;56.50;44.50;;;;;11.27;43.07;102141.09;5036756;28;47417;-57
2022/03/25 06:55:03;;;;;;;;;64.75;50.50;;;;;11.29;42.70;102140.09;5050602;28;45550;-57
2022/03/25 06:57:28;;;;;;;;;67.50;47.00;;;;;11.27;43.33;102149.06;5049599;28;45319;-59
2022/03/25 06:59:58;;;;;;;;;65.75;47.25;;;;;11.22;43.28;102142.13;5036094;28;45783;-64
2022/03/25 07:02:23;;;;;;;;;60.75;49.25;;;;;11.35;43.08;102149.69;5056076;28;46249;-63
2022/03/25 07:04:52;;;;;;;;;52.75;40.50;;;;;11.39;43.21;102148.66;5053638;28;45494;-59
2022/03/25 07:07:26;;;;;;;;;62.50;48.75;;;;;11.47;43.17;102149.25;5056217;28;45308;-57
2022/03/25 07:09:52;;;;;;;;;69.00;50.50;;;;;11.47;43.33;102155.47;5050420;28;45391;-58
2022/03/25 07:12:21;;;;;;;;;64.25;50.75;;;;;11.47;43.23;102152.81;5056081;28;46198;-59
2022/03/25 07:14:46;;;;;;;;;65.00;51.50;;;;;11.23;42.94;102127.88;5054346;28;45316;-59
2022/03/25 07:17:12;;;;;;;;;67.75;50.75;;;;;11.19;42.78;102144.00;5055874;28;45174;-58
2022/03/25 07:19:37;;;;;;;;;56.75;47.75;;;;;11.18;43.71;102136.94;5022967;28;45550;-56
2022/03/25 07:22:04;;;;;;;;;65.50;49.50;;;;;11.42;43.52;102156.53;5028408;28;53596;-56
2022/03/25 07:24:29;;;;;;;;;59.25;48.00;;;;;11.41;43.30;102149.47;5055432;28;45490;-54
2022/03/25 07:26:56;;;;;;;;;63.25;47.75;;;;;11.48;42.56;102159.00;5058709;28;45435;-51
2022/03/25 07:29:22;;;;;;;;;69.00;51.50;;;;;11.49;42.96;102158.94;5044614;28;45292;-60
2022/03/25 07:31:47;;;;;;;;;61.75;49.00;;;;;11.38;43.07;102133.59;5053953;28;46149;-60
2022/03/25 07:34:12;;;;;;;;;61.75;50.50;;;;;11.66;42.97;102162.78;5023885;28;45514;-57
2022/03/25 07:36:38;;;;;;;;;64.50;47.00;;;;;11.51;43.02;102141.09;5044080;28;45659;-59
2022/03/25 07:39:04;;;;;;;;;67.75;53.75;;;;;11.72;42.41;102160.81;5056765;28;45537;-58
2022/03/25 07:41:29;;;;;;;;;69.50;51.75;;;;;11.68;42.48;102143.16;5056755;28;46331;-57
2022/03/25 07:43:55;;;;;;;;;56.00;47.75;;;;;11.85;42.25;102165.69;5056970;28;45264;-59
2022/03/25 07:46:23;;;;;;;;;69.50;51.50;;;;;11.86;41.97;102167.47;5052702;28;45217;-57
2022/03/25 07:48:49;;;;;;;;;64.00;50.50;;;;;11.89;42.01;102172.66;5037427;28;45532;-59
2022/03/25 07:51:15;;;;;;;;;59.75;47.25;;;;;11.85;41.53;102169.25;5046078;28;46975;-58
2022/03/25 07:53:40;;;;;;;;;68.00;52.00;;;;;11.91;41.67;102169.03;5058799;28;45427;-57
2022/03/25 07:56:05;;;;;;;;;63.50;50.50;;;;;11.98;41.92;102174.97;5051978;28;45446;-57
2022/03/25 07:58:32;;;;;;;;;67.00;49.00;;;;;12.03;41.99;102181.03;5058170;28;45465;-56
2022/03/25 08:00:58;;;;;;;;;68.50;50.75;;;;;12.05;41.84;102179.19;5057416;28;46131;-57
2022/03/25 08:03:23;;;;;;;;;65.25;50.25;;;;;12.13;41.85;102186.91;5041033;28;45423;-57
2022/03/25 08:05:50;;;;;;;;;67.75;50.75;;;;;12.13;41.50;102186.91;5032248;28;45478;-61
2022/03/25 08:08:19;;;;;;;;;68.75;50.75;;;;;12.13;41.05;102177.09;5058520;28;45174;-59
2022/03/25 08:10:46;;;;;;;;;62.25;47.00;;;;;12.23;41.51;102181.16;5056898;28;45388;-58
2022/03/25 08:13:12;;;;;;;;;66.00;50.75;;;;;12.22;41.09;102174.06;5040105;28;45423;-58
2022/03/25 08:15:38;;;;;;;;;68.50;53.25;;;;;12.24;41.14;102180.25;5057540;28;45502;-57
2022/03/25 08:18:05;;;;;;;;;71.75;55.75;;;;;12.39;41.39;102189.47;5040199;28;45487;-57
2022/03/25 08:20:35;;;;;;;;;65.00;49.50;;;;;12.46;40.78;102190.94;5057669;28;45481;-58
2022/03/25 08:23:01;;;;;;;;;63.25;49.75;;;;;12.55;41.08;102187.94;5054103;28;45490;-56
2022/03/25 08:28:17;;;;;;;;;69.25;49.75;;;;;12.73;40.13;102188.13;5057644;28;45272;-56
2022/03/25 08:30:44;;;;;;;;;73.50;52.75;;;;;12.74;40.11;102185.41;5038819;28;45652;-56
2022/03/25 08:33:10;;;;;;;;;67.50;53.50;;;;;12.74;39.31;102169.38;5039478;28;45993;-58
2022/03/25 08:35:38;;;;;;;;;68.25;51.50;;;;;12.89;39.48;102190.16;5039836;28;45433;-56
2022/03/25 08:38:04;;;;;;;;;66.25;49.75;;;;;12.93;39.04;102180.22;5058155;28;45335;-57
2022/03/25 08:40:34;;;;;;;;;67.25;52.00;;;;;12.97;39.45;102187.16;5039034;28;46479;-60
2022/03/25 08:43:01;;;;;;;;;65.00;52.50;;;;;13.02;39.55;102195.88;5055358;28;45933;-60
2022/03/25 08:45:27;;;;;;;;;68.25;51.50;;;;;13.07;39.91;102191.19;5057851;28;45401;-58
2022/03/25 08:47:52;;;;;;;;;56.00;40.00;;;;;13.11;39.92;102178.56;5057797;28;45551;-60
2022/03/25 08:50:19;;;;;;;;;62.25;48.75;;;;;13.30;39.86;102184.06;5057933;28;45392;-58
2022/03/25 08:52:46;;;;;;;;;67.25;52.25;;;;;13.48;38.48;102183.28;5057721;28;45395;-60
2022/03/25 08:55:13;;;;;;;;;46.50;30.50;;;;;13.76;38.84;102177.59;5053636;28;45415;-58
2022/03/25 08:57:39;;;;;;;;;67.75;53.25;;;;;14.00;38.28;102187.19;5055417;28;45644;-61
2022/03/25 09:00:12;;;;;;;;;66.25;52.00;;;;;14.22;37.92;102186.25;5056593;28;46027;-59
2022/03/25 09:02:39;;;;;;;;;59.00;44.50;;;;;14.35;37.54;102164.19;5057464;28;45472;-57
2022/03/25 09:05:08;;;;;;;;;67.75;52.50;;;;;14.65;37.47;102167.25;5025583;28;45478;-58
2022/03/25 09:07:34;;;;;;;;;63.75;49.75;;;;;14.89;36.74;102165.19;5053803;28;45299;-59
2022/03/25 09:10:00;;;;;;;;;70.00;52.50;;;;;14.57;36.34;102075.69;5038595;28;45300;-59
2022/03/25 09:12:26;;;;;;;;;65.75;51.00;;;;;15.26;35.88;102150.81;5035769;28;45273;-59
2022/03/25 09:14:52;;;;;;;;;66.50;51.00;;;;;15.59;35.19;102174.16;5020242;28;45448;-59
2022/03/25 09:17:17;;;;;;;;;76.75;56.00;;;;;15.86;35.08;102170.06;5051992;28;45166;-63
2022/03/25 09:19:43;;;;;;;;;73.00;56.50;;;;;16.05;34.23;102172.63;5057944;28;45323;-59
2022/03/25 09:22:09;;;;;;;;;70.50;52.50;;;;;16.24;34.01;102164.44;5057711;28;45445;-60
2022/03/25 09:24:35;;;;;;;;;60.00;45.25;;;;;16.48;33.27;102176.50;5057995;28;45407;-61
2022/03/25 09:27:01;;;;;;;;;68.00;51.50;;;;;16.71;32.78;102179.75;5039014;28;45352;-62
2022/03/25 09:29:30;;;;;;;;;65.00;52.00;;;;;16.92;31.75;102174.97;5057912;28;46002;-61
2022/03/25 09:31:55;;;;;;;;;70.00;51.75;;;;;17.09;30.68;102156.06;5038338;28;45322;-59
2022/03/25 09:37:05;;;;;;;;;68.50;52.25;;;;;17.56;29.93;102161.28;5057350;28;45261;-59
2022/03/25 09:39:31;;;;;;;;;65.50;51.00;;;;;17.76;30.11;102167.31;5056912;28;45328;-58
2022/03/25 09:41:58;;;;;;;;;68.25;52.00;;;;;17.93;30.13;102168.00;5054929;28;45418;-59
2022/03/25 09:44:23;;;;;;;;;67.75;52.50;;;;;18.07;29.71;102169.84;5056946;28;45303;-58
2022/03/25 09:46:50;;;;;;;;;61.00;50.50;;;;;18.13;29.37;102164.09;5057003;28;45387;-59
2022/03/25 09:49:17;;;;;;;;;67.75;52.50;;;;;18.16;29.49;102158.50;5037959;28;46902;-58
2022/03/25 09:51:44;;;;;;;;;68.25;52.25;;;;;18.26;29.15;102159.66;5055597;28;45487;-57
2022/03/25 09:54:12;;;;;;;;;66.75;53.00;;;;;18.41;29.82;102165.88;5056370;28;45454;-59
2022/03/25 09:56:38;;;;;;;;;65.75;51.25;;;;;18.43;28.99;102160.41;5047377;28;45482;-57
2022/03/25 09:59:06;;;;;;;;;68.75;52.00;;;;;18.37;28.74;102142.81;5048812;28;45438;-60
2022/03/25 10:01:32;;;;;;;;;63.75;49.50;;;;;18.54;29.38;102163.28;5056648;28;45327;-60
2022/03/25 10:03:58;;;;;;;;;65.25;50.25;;;;;18.54;28.86;102171.34;5037800;28;45343;-60
2022/03/25 10:06:24;;;;;;;;;63.25;51.00;;;;;18.50;28.56;102165.31;5056901;28;45642;-60
2022/03/25 10:08:57;;;;;;;;;65.75;52.25;;;;;18.36;29.05;102161.75;5054533;28;46318;-59
2022/03/25 10:11:33;;;;;;;;;60.50;48.25;;;;;18.25;28.51;102160.63;5052350;28;45288;-59
2022/03/25 10:14:14;;;;;;;;;57.25;44.50;;;;;18.15;28.94;102164.84;5056300;28;45706;-57
2022/03/25 10:16:40;;;;;;;;;66.25;49.50;;;;;18.11;29.00;102171.41;5052805;28;45557;-57
2022/03/25 10:19:06;;;;;;;;;69.00;52.00;;;;;18.07;29.00;102164.44;5055918;28;45442;-59
2022/03/25 10:21:55;;;;;;;;;69.50;55.50;;;;;18.10;29.26;102161.59;5037943;28;45414;-58
2022/03/25 10:24:43;;;;;;;;;73.75;55.25;;;;;18.04;29.50;102161.09;5044953;28;45442;-58
2022/03/25 10:27:10;;;;;;;;;69.50;53.25;;;;;18.06;29.32;102151.97;5054327;28;45502;-57
2022/03/25 10:29:36;;;;;;;;;74.25;55.00;;;;;18.09;29.06;102154.44;5038385;28;46572;-57
2022/03/25 10:32:10;;;;;;;;;65.50;52.25;;;;;18.11;29.70;102162.47;5056217;28;45600;-59
2022/03/25 10:34:40;;;;;;;;;65.75;52.00;;;;;18.05;29.22;102141.28;5055904;28;45466;-56
2022/03/25 10:37:09;;;;;;;;;70.25;55.25;;;;;18.15;29.47;102154.09;5055869;28;45657;-58
2022/03/25 10:39:35;;;;;;;;;70.50;53.75;;;;;18.16;29.83;102142.34;5055924;28;46191;-57
2022/03/25 10:42:03;;;;;;;;;70.50;54.75;;;;;18.21;30.12;102131.28;5055703;28;45483;-58
2022/03/25 10:44:41;;;;;;;;;67.00;54.50;;;;;18.38;29.31;102149.06;5056416;28;45257;-59
2022/03/25 10:47:18;;;;;;;;;70.00;52.00;;;;;18.37;28.78;102150.03;5056570;28;45279;-60
2022/03/25 10:49:48;;;;;;;;;70.50;54.25;;;;;18.39;28.98;102145.41;5055161;28;45544;-57
2022/03/25 10:52:42;;;;;;;;;68.25;52.00;;;;;18.40;28.21;102139.06;5054813;28;45248;-58
2022/03/25 10:55:28;;;;;;;;;69.25;53.50;;;;;18.54;29.28;102136.31;5035099;28;45359;-60
2022/03/25 10:57:55;;;;;;;;;66.25;50.25;;;;;18.61;28.81;102140.34;5031888;28;45409;-56
2022/03/25 11:00:24;;;;;;;;;61.50;48.25;;;;;18.68;29.23;102152.50;5035656;28;47288;-60
2022/03/25 11:02:50;;;;;;;;;70.00;54.25;;;;;18.70;28.48;102147.84;5035496;28;45549;-60
2022/03/25 11:05:16;;;;;;;;;69.50;53.00;;;;;18.78;29.40;102142.84;5035820;28;45448;-60
2022/03/25 11:07:44;;;;;;;;;70.00;55.00;;;;;18.79;29.21;102139.19;5018034;28;45451;-62
2022/03/25 11:10:14;;;;;;;;;75.75;55.25;;;;;18.85;29.15;102136.06;5035372;28;47054;-58
2022/03/25 11:12:43;;;;;;;;;66.75;51.75;;;;;19.00;28.81;102136.88;5053830;28;45632;-61
2022/03/25 11:15:17;;;;;;;;;69.50;54.00;;;;;19.04;29.51;102138.41;5037368;28;45386;-60